createdAt,value
2019-06-10T00:00:37.530Z,99.90
2019-06-10T00:03:11.904Z,99.90
2019-06-10T00:05:45.869Z,99.90
2019-06-10T00:08:20.894Z,99.90
2019-06-10T00:10:54.663Z,99.90
2019-06-10T00:13:28.265Z,99.90
2019-06-10T00:16:04.430Z,99.90
2019-06-10T00:18:42.185Z,99.90
2019-06-10T00:21:15.287Z,99.90
2019-06-10T00:23:48.817Z,99.90
2019-06-10T00:26:22.431Z,99.90
2019-06-10T00:28:56.021Z,99.90
2019-06-10T00:31:31.306Z,99.90
2019-06-10T00:34:06.353Z,99.90
2019-06-10T00:36:41.401Z,99.90
2019-06-10T00:39:15.141Z,99.90
2019-06-10T00:41:48.738Z,99.90
2019-06-10T00:44:22.339Z,99.90
2019-06-10T00:50:33.057Z,99.90
2019-06-10T00:53:07.576Z,99.90
2019-06-10T00:55:41.873Z,99.90
2019-06-10T00:58:15.906Z,99.90
2019-06-10T01:00:51.680Z,99.90
2019-06-10T01:06:52.371Z,99.90
2019-06-10T01:09:25.985Z,99.90
2019-06-10T01:12:01.183Z,99.90
2019-06-10T01:14:34.889Z,99.90
2019-06-10T01:17:10.874Z,99.90
2019-06-10T01:19:43.749Z,99.90
2019-06-10T01:22:17.441Z,99.90
2019-06-10T01:24:51.223Z,99.90
2019-06-10T01:27:24.827Z,99.90
2019-06-10T01:29:58.403Z,99.90
2019-06-10T01:32:32.000Z,99.90
2019-06-10T01:35:08.485Z,99.90
2019-06-10T01:37:42.583Z,99.90
2019-06-10T01:40:17.861Z,99.90
2019-06-10T01:42:51.665Z,99.90
2019-06-10T01:45:25.257Z,99.90
2019-06-10T01:48:01.321Z,99.90
2019-06-10T01:50:34.199Z,99.90
2019-06-10T01:53:07.819Z,99.90
2019-06-10T01:55:42.034Z,99.90
2019-06-10T01:58:16.785Z,99.90
2019-06-10T02:01:13.830Z,99.90
2019-06-10T02:03:46.577Z,99.90
2019-06-10T02:06:25.149Z,99.90
2019-06-10T02:08:58.070Z,99.90
2019-06-10T02:11:31.790Z,99.90
2019-06-10T02:14:07.201Z,99.90
2019-06-10T02:16:41.508Z,99.90
2019-06-10T02:19:16.019Z,99.90
2019-06-10T02:21:51.041Z,99.90
2019-06-10T02:24:25.145Z,99.90
2019-06-10T02:27:00.913Z,99.90
2019-06-10T02:29:34.124Z,99.90
2019-06-10T02:32:07.783Z,99.90
2019-06-10T02:34:59.877Z,99.90
2019-06-10T02:37:20.177Z,99.90
2019-06-10T02:39:54.136Z,99.90
2019-06-10T02:42:30.948Z,99.90
2019-06-10T02:45:07.196Z,99.90
2019-06-10T02:51:30.726Z,99.90
2019-06-10T02:54:04.676Z,99.90
2019-06-10T02:56:37.324Z,99.90
2019-06-10T02:59:13.180Z,99.90
2019-06-10T03:01:46.645Z,99.90
2019-06-10T03:08:06.630Z,99.90
2019-06-10T03:10:44.004Z,99.90
2019-06-10T03:13:15.690Z,99.90
2019-06-10T03:15:52.193Z,99.90
2019-06-10T03:18:26.051Z,99.90
2019-06-10T03:21:02.411Z,99.90
2019-06-10T03:23:34.848Z,99.90
2019-06-10T03:26:08.550Z,99.90
2019-06-10T03:28:42.807Z,99.90
2019-06-10T03:31:18.769Z,99.90
2019-06-10T03:33:54.236Z,99.90
2019-06-10T03:36:27.467Z,99.90
2019-06-10T03:39:02.651Z,99.90
2019-06-10T03:41:36.470Z,99.90
2019-06-10T03:44:10.044Z,99.90
2019-06-10T03:46:43.671Z,99.90
2019-06-10T03:49:17.266Z,99.90
2019-06-10T03:51:52.955Z,99.90
2019-06-10T03:54:29.053Z,99.90
2019-06-10T03:57:02.874Z,99.90
2019-06-10T03:59:36.634Z,99.90
2019-06-10T04:02:12.643Z,99.90
2019-06-10T04:04:45.459Z,99.90
2019-06-10T04:07:20.890Z,99.90
2019-06-10T04:09:54.316Z,99.90
2019-06-10T04:12:29.200Z,99.90
2019-06-10T04:15:03.233Z,99.90
2019-06-10T04:17:37.286Z,99.90
2019-06-10T04:20:13.178Z,99.90
2019-06-10T04:22:46.616Z,99.90
2019-06-10T04:25:23.205Z,99.90
2019-06-10T04:27:55.612Z,99.90
2019-06-10T04:30:29.376Z,99.90
2019-06-10T04:33:03.095Z,99.90
2019-06-10T04:35:36.790Z,99.90
2019-06-10T04:38:10.392Z,99.90
2019-06-10T04:40:44.986Z,99.90
2019-06-10T04:43:18.648Z,99.90
2019-06-10T04:45:52.771Z,99.90
2019-06-10T04:52:12.542Z,99.90
2019-06-10T04:54:46.143Z,99.90
2019-06-10T04:57:21.303Z,99.90
2019-06-10T04:59:55.116Z,99.90
2019-06-10T05:02:30.794Z,99.90
2019-06-10T05:08:53.603Z,99.90
2019-06-10T05:11:27.380Z,99.90
2019-06-10T05:14:02.826Z,99.90
2019-06-10T05:16:36.610Z,99.90
2019-06-10T05:19:12.625Z,99.90
2019-06-10T05:21:46.224Z,99.90
2019-06-10T05:24:19.806Z,99.90
2019-06-10T05:26:53.438Z,99.90
2019-06-10T05:29:28.347Z,99.90
2019-06-10T05:32:02.515Z,99.90
2019-06-10T05:34:36.620Z,99.90
2019-06-10T05:37:12.012Z,99.90
2019-06-10T05:39:45.516Z,99.90
2019-06-10T05:42:19.109Z,99.90
2019-06-10T05:44:53.052Z,99.90
2019-06-10T05:47:29.218Z,99.90
2019-06-10T05:50:03.231Z,99.90
2019-06-10T05:52:38.414Z,99.90
2019-06-10T05:55:12.272Z,99.90
2019-06-10T05:57:45.944Z,99.90
2019-06-10T06:00:19.965Z,99.90
2019-06-10T06:02:53.650Z,99.90
2019-06-10T06:05:27.980Z,99.90
2019-06-10T06:08:08.213Z,99.90
2019-06-10T06:10:37.862Z,99.90
2019-06-10T06:13:12.686Z,99.90
2019-06-10T06:15:46.432Z,99.90
2019-06-10T06:18:22.435Z,99.90
2019-06-10T06:20:55.582Z,99.90
2019-06-10T06:23:30.657Z,99.90
2019-06-10T06:26:04.789Z,99.90
2019-06-10T06:28:38.397Z,99.90
2019-06-10T06:31:12.729Z,99.90
2019-06-10T06:33:46.626Z,99.90
2019-06-10T06:36:22.439Z,99.90
2019-06-10T06:38:55.570Z,99.90
2019-06-10T06:41:29.527Z,99.90
2019-06-10T06:44:03.360Z,99.90
2019-06-10T06:46:39.334Z,99.90
2019-06-10T06:53:19.807Z,99.90
2019-06-10T06:55:36.214Z,99.90
2019-06-10T06:58:09.274Z,99.90
2019-06-10T07:01:00.430Z,99.90
2019-06-10T07:03:18.227Z,99.90
2019-06-10T07:09:38.948Z,99.90
2019-06-10T07:12:13.095Z,99.90
2019-06-10T07:14:48.736Z,99.90
2019-06-10T07:17:22.854Z,99.90
2019-06-10T07:19:57.652Z,99.90
2019-06-10T07:22:33.570Z,99.90
2019-06-10T07:25:07.707Z,99.90
2019-06-10T07:27:45.208Z,99.90
2019-06-10T07:30:16.952Z,99.90
2019-06-10T07:32:52.695Z,99.90
2019-06-10T07:35:25.954Z,99.90
2019-06-10T07:37:59.582Z,99.90
2019-06-10T07:40:34.718Z,99.90
2019-06-10T07:43:08.484Z,99.90
2019-06-10T07:45:47.592Z,99.90
2019-06-10T07:48:17.338Z,99.90
2019-06-10T07:50:53.078Z,99.90
2019-06-10T07:53:26.202Z,99.90
2019-06-10T07:55:59.844Z,99.90
2019-06-10T07:58:36.508Z,99.90
2019-06-10T08:01:09.023Z,99.90
2019-06-10T08:03:46.414Z,99.90
2019-06-10T08:06:17.884Z,99.90
2019-06-10T08:08:53.220Z,99.90
2019-06-10T08:11:26.799Z,99.90
2019-06-10T08:14:04.378Z,99.90
2019-06-10T08:16:35.722Z,99.90
2019-06-10T08:19:26.282Z,99.90
2019-06-10T08:21:48.042Z,99.90
2019-06-10T08:24:22.103Z,99.90
2019-06-10T08:26:55.337Z,99.90
2019-06-10T08:29:28.967Z,99.90
2019-06-10T08:32:03.276Z,99.90
2019-06-10T08:34:38.025Z,99.90
2019-06-10T08:37:13.643Z,99.90
2019-06-10T08:39:47.711Z,99.90
2019-06-10T08:42:23.343Z,99.90
2019-06-10T08:44:59.826Z,99.90
2019-06-10T08:47:32.658Z,99.90
2019-06-10T08:53:46.569Z,99.90
2019-06-10T08:56:18.879Z,99.90
2019-06-10T08:58:54.087Z,99.90
2019-06-10T09:01:27.917Z,99.90
2019-06-10T09:04:03.128Z,99.90
2019-06-10T09:10:15.231Z,99.90
2019-06-10T09:12:50.968Z,99.90
2019-06-10T09:15:24.159Z,99.90
2019-06-10T09:17:57.747Z,99.90
2019-06-10T09:20:33.196Z,99.90
2019-06-10T09:23:21.577Z,99.90
2019-06-10T09:25:46.451Z,99.90
2019-06-10T09:28:17.521Z,99.90
2019-06-10T09:30:57.980Z,99.90
2019-06-10T09:33:26.651Z,99.90
2019-06-10T09:36:00.271Z,99.90
2019-06-10T09:38:34.651Z,99.90
2019-06-10T09:41:08.918Z,99.90
2019-06-10T09:43:48.731Z,99.90
2019-06-10T09:46:20.040Z,99.90
2019-06-10T09:48:56.173Z,99.90
2019-06-10T09:51:32.231Z,99.90
2019-06-10T09:54:06.653Z,99.90
2019-06-10T09:56:43.701Z,99.90
2019-06-10T09:59:16.079Z,99.80
2019-06-10T10:01:55.316Z,99.50
2019-06-10T10:04:25.400Z,98.70
2019-06-10T10:06:59.117Z,98.40
2019-06-10T10:09:36.860Z,97.90
2019-06-10T10:12:09.115Z,97.30
2019-06-10T10:14:45.859Z,95.80
2019-06-10T10:17:18.134Z,95.20
2019-06-10T10:19:56.308Z,94.00
2019-06-10T10:22:27.333Z,93.80
2019-06-10T10:25:03.010Z,92.70
2019-06-10T10:27:36.989Z,93.10
2019-06-10T10:30:13.385Z,92.50
2019-06-10T10:32:48.951Z,91.20
2019-06-10T10:35:21.459Z,90.90
2019-06-10T10:37:55.831Z,90.40
2019-06-10T10:40:32.334Z,91.50
2019-06-10T10:43:22.569Z,91.20
2019-06-10T10:45:42.743Z,91.00
2019-06-10T10:48:15.557Z,91.40
2019-06-10T10:54:33.948Z,91.40
2019-06-10T10:57:02.600Z,90.80
2019-06-10T10:59:36.349Z,91.70
2019-06-10T11:02:09.998Z,90.30
2019-06-10T11:04:47.819Z,90.00
2019-06-10T11:11:08.859Z,90.80
2019-06-10T11:13:45.313Z,90.60
2019-06-10T11:16:19.177Z,91.40
2019-06-10T11:18:56.179Z,92.00
2019-06-10T11:21:28.063Z,92.00
2019-06-10T11:24:04.625Z,92.20
2019-06-10T11:26:37.349Z,91.40
2019-06-10T11:29:10.916Z,92.10
2019-06-10T11:31:44.515Z,92.90
2019-06-10T11:34:19.857Z,93.40
2019-06-10T11:36:55.260Z,93.40
2019-06-10T11:39:28.807Z,93.10
2019-06-10T11:42:03.861Z,94.10
2019-06-10T11:44:37.750Z,93.00
2019-06-10T11:47:13.131Z,92.80
2019-06-10T11:49:46.889Z,92.10
2019-06-10T11:52:22.911Z,92.40
2019-06-10T11:55:10.635Z,93.10
2019-06-10T11:57:32.919Z,92.90
2019-06-10T12:00:16.530Z,92.80
2019-06-10T12:02:46.170Z,92.30
2019-06-10T12:05:23.325Z,92.00
2019-06-10T12:07:59.351Z,91.40
2019-06-10T12:10:33.011Z,91.10
2019-06-10T12:13:07.240Z,92.20
2019-06-10T12:16:21.442Z,92.40
2019-06-10T12:18:19.344Z,92.40
2019-06-10T12:20:58.989Z,92.50
2019-06-10T12:23:28.198Z,91.90
2019-06-10T12:26:04.836Z,92.40
2019-06-10T12:28:37.064Z,91.90
2019-06-10T12:31:13.417Z,91.20
2019-06-10T12:33:46.026Z,90.40
2019-06-10T12:36:19.630Z,89.20
2019-06-10T12:38:56.489Z,90.10
2019-06-10T12:41:28.516Z,87.20
2019-06-10T12:44:03.351Z,89.30
2019-06-10T12:46:37.522Z,86.60
2019-06-10T12:49:13.040Z,87.60
2019-06-10T12:55:42.863Z,86.90
2019-06-10T12:58:08.150Z,87.00
2019-06-10T13:00:46.852Z,85.50
2019-06-10T13:03:20.671Z,86.90
2019-06-10T13:05:55.970Z,89.00
2019-06-10T13:12:15.777Z,90.00
2019-06-10T13:14:51.909Z,90.80
2019-06-10T13:17:24.736Z,89.80
2019-06-10T13:19:59.234Z,90.40
2019-06-10T13:22:32.974Z,90.20
2019-06-10T13:25:07.048Z,89.80
2019-06-10T13:27:42.680Z,90.70
2019-06-10T13:30:16.075Z,88.60
2019-06-10T13:32:52.556Z,87.90
2019-06-10T13:35:25.250Z,88.20
2019-06-10T13:37:59.071Z,90.00
2019-06-10T13:40:32.827Z,88.30
2019-06-10T13:43:06.598Z,88.90
2019-06-10T13:45:42.341Z,89.00
2019-06-10T13:48:15.530Z,89.40
2019-06-10T13:50:49.104Z,88.80
2019-06-10T13:53:22.807Z,87.90
2019-06-10T13:56:16.952Z,90.00
2019-06-10T13:58:31.774Z,90.00
2019-06-10T14:01:11.627Z,90.60
2019-06-10T14:03:43.036Z,90.90
2019-06-10T14:06:33.309Z,91.00
2019-06-10T14:08:52.163Z,90.90
2019-06-10T14:11:29.853Z,90.90
2019-06-10T14:14:02.575Z,90.40
2019-06-10T14:16:37.257Z,90.80
2019-06-10T14:19:15.987Z,90.40
2019-06-10T14:21:47.524Z,91.20
2019-06-10T14:24:22.801Z,91.10
2019-06-10T14:26:56.392Z,91.70
2019-06-10T14:29:30.022Z,91.00
2019-06-10T14:32:05.698Z,90.40
2019-06-10T14:34:41.933Z,90.70
2019-06-10T14:37:15.687Z,90.10
2019-06-10T14:39:52.883Z,90.30
2019-06-10T14:42:26.092Z,90.40
2019-06-10T14:45:00.119Z,90.60
2019-06-10T14:47:33.751Z,91.30
2019-06-10T14:50:10.825Z,91.60
2019-06-10T14:56:33.176Z,91.40
2019-06-10T14:59:07.424Z,91.10
2019-06-10T15:01:42.648Z,91.20
2019-06-10T15:04:17.872Z,90.90
2019-06-10T15:06:53.717Z,90.90
2019-06-10T15:13:13.880Z,91.10
2019-06-10T15:15:47.601Z,90.90
2019-06-10T15:18:23.567Z,91.30
2019-06-10T15:20:56.539Z,90.60
2019-06-10T15:23:32.489Z,90.30
2019-06-10T15:26:05.614Z,90.20
2019-06-10T15:28:39.189Z,90.80
2019-06-10T15:31:14.609Z,91.10
2019-06-10T15:33:48.093Z,91.40
2019-06-10T15:36:21.754Z,91.40
2019-06-10T15:38:55.362Z,91.20
2019-06-10T15:41:29.122Z,91.70
2019-06-10T15:44:02.811Z,91.60
2019-06-10T15:46:36.415Z,91.60
2019-06-10T15:49:12.001Z,92.40
2019-06-10T15:51:45.285Z,92.60
2019-06-10T15:54:20.499Z,92.50
2019-06-10T15:56:56.550Z,92.80
2019-06-10T15:59:29.528Z,93.10
2019-06-10T16:02:03.167Z,93.20
2019-06-10T16:04:37.083Z,92.90
2019-06-10T16:07:13.101Z,92.70
2019-06-10T16:09:46.025Z,93.20
2019-06-10T16:12:24.001Z,93.60
2019-06-10T16:14:54.909Z,93.10
2019-06-10T16:17:30.870Z,93.10
2019-06-10T16:20:09.247Z,93.10
2019-06-10T16:22:42.907Z,93.60
2019-06-10T16:25:17.765Z,93.70
2019-06-10T16:27:54.257Z,93.40
2019-06-10T16:30:26.767Z,93.00
2019-06-10T16:33:02.742Z,92.60
2019-06-10T16:35:35.628Z,92.60
2019-06-10T16:41:55.405Z,92.80
2019-06-10T16:44:29.082Z,92.60
2019-06-10T16:47:03.189Z,93.00
2019-06-10T16:49:36.996Z,93.00
2019-06-10T16:52:12.130Z,93.70
2019-06-10T16:58:33.491Z,94.40
2019-06-10T17:01:07.471Z,95.20
2019-06-10T17:03:42.537Z,96.00
2019-06-10T17:06:17.461Z,96.50
2019-06-10T17:08:52.234Z,96.70
2019-06-10T17:11:28.786Z,97.50
2019-06-10T17:14:03.102Z,97.90
2019-06-10T17:16:40.352Z,98.60
2019-06-10T17:19:14.307Z,99.60
2019-06-10T17:21:47.632Z,99.90
2019-06-10T17:24:23.795Z,99.90
2019-06-10T17:26:56.709Z,99.90
2019-06-10T17:29:30.624Z,99.90
2019-06-10T17:32:04.446Z,99.90
2019-06-10T17:34:38.088Z,99.90
2019-06-10T17:37:12.491Z,99.90
2019-06-10T17:39:46.305Z,99.90
2019-06-10T17:42:24.651Z,99.90
2019-06-10T17:44:56.623Z,99.90
2019-06-10T17:47:32.346Z,99.90
2019-06-10T17:50:07.662Z,99.90
2019-06-10T17:52:42.699Z,99.90
2019-06-10T17:55:16.589Z,99.90
2019-06-10T17:57:50.239Z,99.90
2019-06-10T18:00:26.113Z,99.90
2019-06-10T18:02:59.395Z,99.90
2019-06-10T18:05:33.558Z,99.90
2019-06-10T18:08:07.375Z,99.90
2019-06-10T18:10:43.375Z,99.90
2019-06-10T18:13:16.869Z,99.90
2019-06-10T18:15:53.171Z,99.90
2019-06-10T18:18:26.386Z,99.90
2019-06-10T18:21:00.129Z,99.90
2019-06-10T18:23:35.046Z,99.90
2019-06-10T18:26:08.922Z,99.90
2019-06-10T18:29:00.277Z,99.90
2019-06-10T18:31:18.773Z,99.90
2019-06-10T18:33:53.227Z,99.90
2019-06-10T18:36:27.999Z,99.90
2019-06-10T18:42:47.893Z,99.90
2019-06-10T18:45:22.368Z,99.90
2019-06-10T18:47:56.058Z,99.90
2019-06-10T18:50:30.211Z,99.90
2019-06-10T18:53:05.492Z,99.90
2019-06-10T18:59:20.910Z,99.90
2019-06-10T19:01:52.653Z,99.90
2019-06-10T19:04:26.578Z,99.90
2019-06-10T19:07:02.758Z,99.90
2019-06-10T19:09:39.484Z,99.90
2019-06-10T19:12:13.400Z,99.90
2019-06-10T19:14:47.155Z,99.90
2019-06-10T19:17:22.939Z,99.90
2019-06-10T19:19:56.190Z,99.90
2019-06-10T19:22:30.087Z,99.90
2019-06-10T19:25:07.866Z,99.90
2019-06-10T19:27:44.224Z,99.90
2019-06-10T19:30:17.550Z,99.90
2019-06-10T19:32:52.813Z,99.90
2019-06-10T19:35:26.530Z,99.90
2019-06-10T19:38:02.252Z,99.90
2019-06-10T19:40:36.648Z,99.90
2019-06-10T19:43:12.352Z,99.90
2019-06-10T19:45:46.894Z,99.90
2019-06-10T19:48:20.599Z,99.90
2019-06-10T19:50:54.235Z,99.90
2019-06-10T19:53:27.843Z,99.90
2019-06-10T19:56:02.598Z,99.90
2019-06-10T19:58:36.363Z,99.90
2019-06-10T20:01:10.361Z,99.90
